Ripley, United Kingdom
Current Conditions -  °F | °C
As of 3:20 PM on Wednesday 22 Oct 2014 (Local Time) from EGNX Reporting Station
Drizzle Drizzle  
Wind Chill: 52°   Ceiling: Unl
Heat Index: 52°   Visibility: 6mi
Dew Point: 48°   Wind: 14mph
Humidity: 88%   Direction: 230°SW
Pressure: 30.21"   Gusts: NA
Location:  53.03°N, 1.4°W
Report Text: EGNX 221420Z 23012KT 9999 -DZ FEW025 SCT033 11/09 Q1023
Loading
Personal Weather Stations






























Interactive Weather Map
Tropical Storm Tracking
New forecast layout! Learn more

10-Day Weather Forecast

Advertisements
Track Severe Weather on mobile